Welcome to Northern Hawkes Bay. New Zealand.
PWS Header
      nz Flag



Hit Counter


W3C Valid W3C Valid logo


    Wairoa

Select any of the Stations below to visit their websites.










Historic Data from Weather Underground
Select the location of interest below. Wairoa is the default. Please have patience, this Data is slow to load in.
Northern Hawkes Bay Historical Data
Daily Summary for June 12, 2017 Units:  English    Metric   Both
« Previous Day
Next Day »
Daily Weekly Monthly Yearly Custom
  High: Low: Average:
Temperature: 68.2 °F 37.2 °F 49.5 °F
Dew Point: 50.4 °F 36.5 °F 43.3 °F
Humidity: 99% 50% 82%
Wind Speed: 8.3mph 0mph 4mph
Wind Gust: 13mph - -
Wind- - WNW
Pressure: 30.2 in 30 in -
Precipitation: 0 in    
Historical Graphs
 
 
Tabular Data for June 12, 2017
Time Temperature Dew Point Pressure Wind Wind Speed Wind Gust Humidity Rainfall Rate (Hourly) solar
00:12 41.9 °F 41.5 °F 30.2 in NNW 6 mph 11.4 mph 99% 0 in 0 W/m2
00:17 41.7 °F 41.5 °F 30.2 in NNW 6.9 mph 11.4 mph 99% 0 in 0 W/m2
00:22 41.5 °F 41.4 °F 30.2 in North 4.5 mph 11.4 mph 99% 0 in 0 W/m2
00:27 41.4 °F 41.2 °F 30.2 in North 4.5 mph 9.2 mph 99% 0 in 0 W/m2
00:33 41.4 °F 41.2 °F 30.2 in North 5.4 mph 8.3 mph 99% 0 in 0 W/m2
00:38 41.4 °F 41.2 °F 30.2 in North 3.1 mph 8.3 mph 99% 0 in 0 W/m2
00:43 41.4 °F 41.2 °F 30.2 in NNW 3.8 mph 7.6 mph 99% 0 in 0 W/m2
00:48 41.2 °F 40.8 °F 30.2 in North 5.4 mph 7.6 mph 99% 0 in 0 W/m2
00:51 41.2 °F 40.8 °F 30.2 in North 4.5 mph 7.6 mph 99% 0 in 0 W/m2
00:56 41.2 °F 40.8 °F 30.2 in NNW 5.4 mph 7.6 mph 99% 0 in 0 W/m2
01:01 41.2 °F 40.8 °F 30.2 in NNW 6.9 mph 9.2 mph 99% 0 in 0 W/m2
01:06 41.2 °F 40.8 °F 30.2 in NNW 6 mph 9.2 mph 99% 0 in 0 W/m2
01:11 41 °F 40.6 °F 30.2 in NNW 5.4 mph 9.2 mph 99% 0 in 0 W/m2
01:16 41 °F 40.6 °F 30.2 in North 5.4 mph 9.2 mph 99% 0 in 0 W/m2
01:21 41.2 °F 40.8 °F 30.2 in North 2.2 mph 9.2 mph 99% 0 in 0 W/m2
01:40 41 °F 40.6 °F 30.2 in NNW 6.9 mph 9.8 mph 99% 0 in 0 W/m2
01:45 40.8 °F 40.6 °F 30.2 in North 5.4 mph 9.8 mph 99% 0 in 0 W/m2
01:50 40.8 °F 40.6 °F 30.2 in NNW 3.8 mph 10.7 mph 99% 0 in 0 W/m2
01:55 40.5 °F 40.3 °F 30.2 in NNW 4.5 mph 10.7 mph 99% 0 in 0 W/m2
02:00 40.5 °F 40.3 °F 30.2 in North 5.4 mph 8.3 mph 99% 0 in 0 W/m2
02:05 40.3 °F 39.9 °F 30.2 in North 4.5 mph 9.2 mph 99% 0 in 0 W/m2
02:10 40.3 °F 39.9 °F 30.2 in North 6.9 mph 9.8 mph 99% 0 in 0 W/m2
02:15 40.1 °F 39.7 °F 30.2 in North 4.5 mph 10.7 mph 99% 0 in 0 W/m2
02:16 40.1 °F 39.7 °F 30.2 in North 5.4 mph 10.7 mph 99% 0 in 0 W/m2
02:21 40.1 °F 39.7 °F 30.2 in North 4.5 mph 10.7 mph 99% 0 in 0 W/m2
02:26 40.3 °F 39.9 °F 30.2 in North 3.8 mph 9.2 mph 99% 0 in 0 W/m2
02:31 40.3 °F 39.9 °F 30.2 in NNE 4.5 mph 9.2 mph 99% 0 in 0 W/m2
02:36 40.1 °F 39.7 °F 30.2 in North 5.4 mph 9.2 mph 99% 0 in 0 W/m2
02:41 40.1 °F 39.7 °F 30.2 in North 4.5 mph 8.3 mph 99% 0 in 0 W/m2
02:46 40.1 °F 39.7 °F 30.2 in North 5.4 mph 9.2 mph 99% 0 in 0 W/m2
02:51 40.1 °F 39.7 °F 30.2 in NNW 6 mph 10.7 mph 99% 0 in 0 W/m2
02:56 40.1 °F 39.7 °F 30.1 in NNW 5.4 mph 10.7 mph 99% 0 in 0 W/m2
03:01 39.9 °F 39.7 °F 30.1 in NNW 5.4 mph 8.3 mph 99% 0 in 0 W/m2
03:06 39.9 °F 39.7 °F 30.1 in NNW 6.9 mph 9.8 mph 99% 0 in 0 W/m2
03:11 39.7 °F 39.6 °F 30.1 in NNW 5.4 mph 9.8 mph 99% 0 in 0 W/m2
03:16 39.6 °F 39.4 °F 30.1 in NNW 4.5 mph 8.3 mph 99% 0 in 0 W/m2
03:21 39.4 °F 39 °F 30.1 in NNW 6.9 mph 9.2 mph 99% 0 in 0 W/m2
03:26 39.6 °F 39.4 °F 30.1 in NNW 7.6 mph 13 mph 99% 0 in 0 W/m2
03:31 39.7 °F 39.6 °F 30.1 in NNW 6 mph 13 mph 99% 0 in 0 W/m2
03:36 39.9 °F 39.7 °F 30.1 in NNW 4.5 mph 11.4 mph 99% 0 in 0 W/m2
03:41 39.7 °F 39.6 °F 30.1 in NNW 6 mph 9.8 mph 99% 0 in 0 W/m2
03:46 39.9 °F 39.7 °F 30.1 in NNW 7.6 mph 10.7 mph 99% 0 in 0 W/m2
03:51 39.9 °F 39.7 °F 30.1 in NNW 6 mph 10.7 mph 99% 0 in 0 W/m2
03:56 39.9 °F 39.7 °F 30.1 in NNW 4.5 mph 10.7 mph 99% 0 in 0 W/m2
04:01 39.7 °F 39.6 °F 30.1 in NNW 6 mph 9.8 mph 99% 0 in 0 W/m2
04:06 39.9 °F 39.7 °F 30.1 in North 4.5 mph 10.7 mph 99% 0 in 0 W/m2
04:11 39.7 °F 39.6 °F 30.1 in North 3.1 mph 10.7 mph 99% 0 in 0 W/m2
04:16 39.7 °F 39.6 °F 30.1 in North 6 mph 11.4 mph 99% 0 in 0 W/m2
04:22 39.7 °F 39.6 °F 30.1 in North 4.5 mph 11.4 mph 99% 0 in 0 W/m2
04:27 39.6 °F 39.4 °F 30.1 in NNW 3.8 mph 9.8 mph 99% 0 in 0 W/m2
04:32 39.4 °F 39 °F 30.1 in NNW 4.5 mph 7.6 mph 99% 0 in 0 W/m2
04:37 39.4 °F 39 °F 30.1 in NNW 3.8 mph 8.3 mph 99% 0 in 0 W/m2
04:42 39 °F 38.8 °F 30.1 in NNW 5.4 mph 8.3 mph 99% 0 in 0 W/m2
04:47 39 °F 38.8 °F 30.1 in NW 4.5 mph 8.3 mph 99% 0 in 0 W/m2
04:52 38.8 °F 38.7 °F 30.1 in NW 4.5 mph 8.3 mph 99% 0 in 0 W/m2
04:57 38.7 °F 38.5 °F 30.1 in NNW 5.4 mph 10.7 mph 99% 0 in 0 W/m2
05:02 38.7 °F 38.5 °F 30.1 in NNW 4.5 mph 11.4 mph 99% 0 in 0 W/m2
05:07 38.5 °F 38.1 °F 30.1 in NNW 5.4 mph 11.4 mph 99% 0 in 0 W/m2
05:12 38.5 °F 38.1 °F 30.1 in NNW 4.5 mph 9.2 mph 99% 0 in 0 W/m2
05:17 38.3 °F 37.9 °F 30.1 in North 4.5 mph 9.2 mph 99% 0 in 0 W/m2
05:22 38.5 °F 38.1 °F 30.1 in North 3.1 mph 9.2 mph 99% 0 in 0 W/m2
05:27 38.3 °F 37.9 °F 30.1 in NNW 3.1 mph 6.9 mph 99% 0 in 0 W/m2
05:32 38.1 °F 37.9 °F 30.1 in NNW 4.5 mph 6.9 mph 99% 0 in 0 W/m2
05:37 38.1 °F 37.9 °F 30.1 in NW 4.5 mph 6.9 mph 99% 0 in 0 W/m2
05:42 37.9 °F 37.8 °F 30.1 in NNW 3.1 mph 6.9 mph 99% 0 in 0 W/m2
05:47 37.9 °F 37.8 °F 30.1 in North 3.1 mph 6 mph 99% 0 in 0 W/m2
05:52 37.9 °F 37.8 °F 30.1 in North 2.2 mph 6 mph 99% 0 in 0 W/m2
05:55 37.9 °F 37.8 °F 30.1 in NNW 4.5 mph 6.9 mph 99% 0 in 0 W/m2
06:00 37.9 °F 37.8 °F 30.1 in NNW 3.1 mph 7.6 mph 99% 0 in 0 W/m2
06:05 38.1 °F 37.9 °F 30.1 in North 3.1 mph 7.6 mph 99% 0 in 0 W/m2
06:10 38.3 °F 37.9 °F 30.1 in North 3.1 mph 6 mph 99% 0 in 0 W/m2
06:15 38.3 °F 37.9 °F 30.1 in NNW 5.4 mph 9.8 mph 99% 0 in 0 W/m2
06:20 38.1 °F 37.9 °F 30.1 in NNW 4.5 mph 9.8 mph 99% 0 in 0 W/m2
06:25 38.1 °F 37.9 °F 30.1 in NNW 4.5 mph 8.3 mph 99% 0 in 0 W/m2
06:30 38.1 °F 37.9 °F 30.1 in North 6 mph 9.2 mph 99% 0 in 0 W/m2
06:35 38.1 °F 37.9 °F 30.1 in NNW 5.4 mph 9.8 mph 99% 0 in 0 W/m2
06:40 38.1 °F 37.9 °F 30.1 in NNW 6.9 mph 10.7 mph 99% 0 in 0 W/m2
06:45 38.1 °F 37.9 °F 30.1 in NNW 6.9 mph 10.7 mph 99% 0 in 0 W/m2
06:50 37.9 °F 37.8 °F 30.1 in NNW 6 mph 10.7 mph 99% 0 in 0 W/m2
06:55 37.6 °F 37.2 °F 30.1 in NNW 6.9 mph 10.7 mph 99% 0 in 0 W/m2
07:00 37.8 °F 37.6 °F 30.1 in NNW 6 mph 12.1 mph 99% 0 in 0 W/m2
07:05 37.6 °F 37.2 °F 30.1 in NNW 5.4 mph 12.1 mph 99% 0 in 0 W/m2
07:10 37.4 °F 37 °F 30.1 in NNW 5.4 mph 9.8 mph 99% 0 in 0 W/m2
07:15 37.4 °F 37 °F 30.1 in NNW 6.9 mph 9.2 mph 99% 0 in 0 W/m2
07:20 37.4 °F 37 °F 30.1 in NNW 8.3 mph 10.7 mph 99% 0 in 0 W/m2
07:25 37.4 °F 37 °F 30.1 in NNW 5.4 mph 10.7 mph 99% 0 in 0 W/m2
07:30 37.2 °F 36.5 °F 30.1 in NNW 4.5 mph 10.7 mph 97% 0 in 1 W/m2
07:35 37.2 °F 36.5 °F 30.1 in NNW 3.8 mph 8.3 mph 97% 0 in 4 W/m2
07:40 37.4 °F 37 °F 30.1 in NW 3.1 mph 8.3 mph 99% 0 in 22 W/m2
07:45 37.8 °F 37.6 °F 30.1 in NW 4.5 mph 6.9 mph 99% 0 in 33 W/m2
07:50 37.9 °F 37.8 °F 30.1 in NW 5.4 mph 7.6 mph 99% 0 in 42 W/m2
07:55 38.1 °F 37.9 °F 30.1 in NNW 4.5 mph 7.6 mph 99% 0 in 52 W/m2
08:00 38.5 °F 38.1 °F 30.1 in NNW 4.5 mph 7.6 mph 99% 0 in 63 W/m2
08:05 38.7 °F 38.5 °F 30.1 in NNW 4.5 mph 9.2 mph 99% 0 in 74 W/m2
08:10 39 °F 38.8 °F 30.1 in NNW 5.4 mph 9.2 mph 99% 0 in 84 W/m2
08:15 39 °F 38.5 °F 30.1 in NNW 6.9 mph 9.2 mph 98% 0 in 93 W/m2
08:20 39.4 °F 38.3 °F 30.1 in NNW 8.3 mph 9.8 mph 96% 0 in 102 W/m2
08:25 39.9 °F 38.8 °F 30.1 in NNW 7.6 mph 9.8 mph 96% 0 in 110 W/m2
08:30 40.3 °F 39 °F 30.1 in NNW 6.9 mph 11.4 mph 95% 0 in 119 W/m2
08:35 40.5 °F 38.8 °F 30.1 in NNW 7.6 mph 11.4 mph 94% 0 in 127 W/m2
08:40 40.8 °F 39.2 °F 30.1 in NNW 6 mph 10.7 mph 94% 0 in 135 W/m2
08:45 41 °F 39 °F 30.1 in NNW 6.9 mph 9.2 mph 93% 0 in 143 W/m2
08:50 41.7 °F 39.7 °F 30.1 in NNW 6 mph 9.2 mph 93% 0 in 152 W/m2
08:55 42.3 °F 40.1 °F 30.1 in NNW 5.4 mph 8.3 mph 92% 0 in 159 W/m2
09:00 42.6 °F 39.9 °F 30.1 in NNW 6 mph 8.3 mph 90% 0 in 167 W/m2
09:05 43 °F 39.7 °F 30.1 in NW 5.4 mph 9.2 mph 88% 0 in 174 W/m2
09:10 43.3 °F 39.7 °F 30.1 in NW 4.5 mph 9.2 mph 87% 0 in 181 W/m2
09:15 43.9 °F 40.3 °F 30.1 in NNW 5.4 mph 9.2 mph 87% 0 in 188 W/m2
09:20 44.1 °F 40.1 °F 30.1 in NW 4.5 mph 9.8 mph 86% 0 in 194 W/m2
09:25 44.6 °F 40.5 °F 30.1 in NW 4.5 mph 9.8 mph 85% 0 in 200 W/m2
09:30 45.3 °F 40.8 °F 30.1 in NW 4.5 mph 7.6 mph 84% 0 in 206 W/m2
09:35 45.5 °F 41 °F 30.1 in NW 4.5 mph 6.9 mph 84% 0 in 211 W/m2
09:40 45.7 °F 41.2 °F 30.1 in NW 3.1 mph 7.6 mph 84% 0 in 161 W/m2
09:45 46 °F 41.2 °F 30.1 in NW 5.4 mph 7.6 mph 83% 0 in 104 W/m2
09:50 46.6 °F 42.1 °F 30.1 in NNW 3.1 mph 6.9 mph 84% 0 in 99 W/m2
09:55 47.8 °F 43 °F 30.1 in NNW 3.8 mph 6.9 mph 83% 0 in 71 W/m2
10:00 48.6 °F 42.6 °F 30.1 in NNW 7.6 mph 9.2 mph 80% 0 in 69 W/m2
10:05 48.6 °F 42.1 °F 30.1 in NNW 4.5 mph 9.8 mph 78% 0 in 70 W/m2
10:10 48.9 °F 42.4 °F 30.1 in NNW 4.5 mph 9.8 mph 78% 0 in 63 W/m2
10:15 49.6 °F 43.3 °F 30.1 in NNW 6 mph 8.3 mph 79% 0 in 61 W/m2
10:20 50 °F 43.2 °F 30.1 in NNW 5.4 mph 8.3 mph 77% 0 in 60 W/m2
10:25 50.4 °F 43.3 °F 30.1 in NNW 3.8 mph 8.3 mph 77% 0 in 59 W/m2
10:30 50.9 °F 44.1 °F 30.1 in NW 4.5 mph 7.6 mph 77% 0 in 56 W/m2
10:35 51.4 °F 44.1 °F 30.1 in NW 4.5 mph 7.6 mph 76% 0 in 53 W/m2
10:40 52 °F 44.2 °F 30.1 in NNW 3.8 mph 6.9 mph 75% 0 in 51 W/m2
10:45 52.7 °F 44.8 °F 30.1 in North 3.1 mph 6.9 mph 74% 0 in 50 W/m2
10:50 53.1 °F 44.6 °F 30.1 in NNW 5.4 mph 6.9 mph 73% 0 in 50 W/m2
10:55 52.9 °F 44.1 °F 30.1 in NW 3.8 mph 6.9 mph 72% 0 in 50 W/m2
11:00 53.2 °F 44.8 °F 30.1 in NNW 4.5 mph 7.6 mph 73% 0 in 50 W/m2
11:05 53.2 °F 44.8 °F 30.1 in NNW 3.8 mph 7.6 mph 73% 0 in 50 W/m2
11:10 54.3 °F 45.9 °F 30.1 in NNW 3.1 mph 6.9 mph 73% 0 in 50 W/m2
11:15 55.2 °F 46.4 °F 30.1 in North 3.8 mph 6 mph 72% 0 in 50 W/m2
11:20 55.6 °F 46.2 °F 30.1 in NNW 3.1 mph 6 mph 71% 0 in 49 W/m2
11:25 55.8 °F 45.9 °F 30.1 in NNW 4.5 mph 7.6 mph 69% 0 in 49 W/m2
11:30 56.5 °F 46.4 °F 30.1 in North 6 mph 7.6 mph 69% 0 in 49 W/m2
11:35 56.5 °F 46.4 °F 30.1 in NNW 3.8 mph 7.6 mph 69% 0 in 48 W/m2
11:40 56.7 °F 46.2 °F 30.1 in NW 3.8 mph 8.3 mph 68% 0 in 48 W/m2
11:45 57.6 °F 46.8 °F 30.1 in NW 3.1 mph 8.3 mph 67% 0 in 48 W/m2
11:50 58.6 °F 47.3 °F 30.1 in NNW 3.1 mph 6.9 mph 66% 0 in 48 W/m2
11:55 59.4 °F 47.7 °F 30.1 in NNW 3.8 mph 8.3 mph 65% 0 in 48 W/m2
12:00 59 °F 47.3 °F 30.1 in NNW 4.5 mph 8.3 mph 65% 0 in 48 W/m2
12:05 59.2 °F 47.5 °F 30.1 in NNW 4.5 mph 7.6 mph 65% 0 in 48 W/m2
12:10 60.1 °F 48.4 °F 30.1 in NNW 3.1 mph 7.6 mph 65% 0 in 48 W/m2
12:15 61 °F 47.8 °F 30.1 in North 2.2 mph 7.6 mph 62% 0 in 48 W/m2
12:20 61.3 °F 48.2 °F 30.1 in NNE 2.2 mph 8.3 mph 62% 0 in 48 W/m2
12:25 61.5 °F 48.4 °F 30.1 in North 3.8 mph 8.3 mph 62% 0 in 48 W/m2
12:30 61.7 °F 48.6 °F 30.1 in NNW 5.4 mph 8.3 mph 62% 0 in 49 W/m2
12:35 61.7 °F 47.7 °F 30.1 in North 2.2 mph 9.2 mph 60% 0 in 50 W/m2
12:40 62.4 °F 48.7 °F 30.1 in NNE 3.8 mph 9.2 mph 61% 0 in 51 W/m2
12:45 62.8 °F 48.4 °F 30.1 in NNE 4.5 mph 8.3 mph 59% 0 in 51 W/m2
12:50 63.3 °F 48.7 °F 30.1 in NNE 6 mph 8.3 mph 59% 0 in 52 W/m2
12:55 63.9 °F 48.7 °F 30.1 in North 2.2 mph 8.3 mph 58% 0 in 53 W/m2
13:00 64.8 °F 49.3 °F 30.1 in NNW 3.8 mph 8.3 mph 57% 0 in 54 W/m2
13:05 64.6 °F 48.6 °F 30.1 in NNW 3.1 mph 9.2 mph 56% 0 in 54 W/m2
13:10 64.4 °F 47.8 °F 30.1 in NNW 3.1 mph 9.2 mph 55% 0 in 56 W/m2
13:15 65.3 °F 49.3 °F 30.1 in North 3.1 mph 8.3 mph 56% 0 in 57 W/m2
13:20 65.5 °F 48.9 °F 30.1 in North 3.1 mph 7.6 mph 55% 0 in 58 W/m2
13:25 65.7 °F 49.1 °F 30.1 in North 4.5 mph 8.3 mph 55% 0 in 60 W/m2
13:30 65.3 °F 48.7 °F 30.1 in North 4.5 mph 8.3 mph 55% 0 in 63 W/m2
13:35 65.7 °F 49.1 °F 30.1 in North 3.8 mph 7.6 mph 55% 0 in 64 W/m2
13:40 65.8 °F 49.3 °F 30.1 in North 3.8 mph 7.6 mph 55% 0 in 65 W/m2
13:45 65.8 °F 49.3 °F 30.1 in North 3.8 mph 7.6 mph 55% 0 in 69 W/m2
13:50 66.7 °F 49.6 °F 30.1 in North 1.6 mph 7.6 mph 54% 0 in 85 W/m2
13:55 67.5 °F 49.8 °F 30.1 in North 2.2 mph 6 mph 53% 0 in 140 W/m2
14:00 67.1 °F 48.9 °F 30.1 in NNE 2.2 mph 6 mph 52% 0 in 202 W/m2
14:05 67.5 °F 49.8 °F 30.1 in North 3.8 mph 6 mph 53% 0 in 234 W/m2
14:10 67.3 °F 49.1 °F 30.1 in NNW 4.5 mph 7.6 mph 52% 0 in 257 W/m2
14:15 67.3 °F 49.6 °F 30 in NNW 3.1 mph 7.6 mph 53% 0 in 256 W/m2
14:20 67.3 °F 49.1 °F 30.1 in North 3.1 mph 7.6 mph 52% 0 in 251 W/m2
14:37 67.6 °F 49.5 °F 30 in North 2.2 mph 6.9 mph 52% 0 in 235 W/m2
14:42 68 °F 49.3 °F 30 in North 1.6 mph 6.9 mph 51% 0 in 229 W/m2
14:47 68 °F 49.6 °F 30 in North 3.1 mph 8.3 mph 52% 0 in 223 W/m2
14:52 68.2 °F 50.4 °F 30 in North 3.1 mph 8.3 mph 53% 0 in 89 W/m2
14:57 66.4 °F 49.3 °F 30 in North 5.4 mph 7.6 mph 54% 0 in 202 W/m2
15:02 67.1 °F 49.8 °F 30 in North 2.2 mph 7.6 mph 54% 0 in 195 W/m2
15:07 68 °F 50.4 °F 30 in NNE 3.8 mph 6 mph 53% 0 in 181 W/m2
15:12 67.6 °F 49.8 °F 30 in NNE 2.2 mph 6.9 mph 53% 0 in 159 W/m2
15:17 67.6 °F 49.5 °F 30 in North 3.1 mph 6.9 mph 52% 0 in 143 W/m2
15:22 68.2 °F 49.5 °F 30 in NNE 3.1 mph 6.9 mph 51% 0 in 133 W/m2
15:27 67.5 °F 48.7 °F 30 in North 4.5 mph 8.3 mph 51% 0 in 127 W/m2
15:32 67.3 °F 49.1 °F 30 in North 4.5 mph 8.3 mph 52% 0 in 117 W/m2
15:37 66.9 °F 47.7 °F 30 in North 2.2 mph 8.3 mph 50% 0 in 108 W/m2
15:42 66.9 °F 47.7 °F 30 in NNE 4.5 mph 7.6 mph 50% 0 in 97 W/m2
15:47 66.4 °F 47.1 °F 30 in North 2.2 mph 6.9 mph 50% 0 in 87 W/m2
15:52 66.4 °F 47.7 °F 30 in NNW 4.5 mph 6.9 mph 51% 0 in 77 W/m2
15:57 66.2 °F 47.7 °F 30 in NNW 4.5 mph 7.6 mph 51% 0 in 68 W/m2
16:02 65.1 °F 48 °F 30 in North 3.1 mph 8.3 mph 54% 0 in 58 W/m2
16:07 64.6 °F 48 °F 30 in North 3.8 mph 8.3 mph 55% 0 in 50 W/m2
16:12 64.2 °F 47.7 °F 30 in NNW 6 mph 8.3 mph 55% 0 in 42 W/m2
16:17 63.9 °F 47.5 °F 30 in NNW 4.5 mph 8.3 mph 55% 0 in 35 W/m2
16:22 63.7 °F 47.1 °F 30 in NNW 3.8 mph 8.3 mph 55% 0 in 28 W/m2
16:27 63.3 °F 47.5 °F 30 in NNW 2.2 mph 6.9 mph 56% 0 in 23 W/m2
16:32 62.8 °F 46.4 °F 30 in NNW 3.8 mph 7.6 mph 55% 0 in 19 W/m2
16:37 62.2 °F 46.4 °F 30 in NNW 6 mph 9.8 mph 56% 0 in 13 W/m2
16:42 61.5 °F 46.2 °F 30 in NNW 4.5 mph 9.8 mph 57% 0 in 7 W/m2
16:47 60.4 °F 46.6 °F 30 in NNW 3.1 mph 7.6 mph 60% 0 in 3 W/m2
16:52 59.7 °F 46.8 °F 30 in NW 6.9 mph 9.8 mph 62% 0 in 1 W/m2
16:57 59.7 °F 46.2 °F 30 in NNW 3.8 mph 9.8 mph 61% 0 in 0 W/m2
17:02 59 °F 46.9 °F 30 in NNW 4.5 mph 9.8 mph 64% 0 in 0 W/m2
17:07 58.3 °F 47.5 °F 30 in NNW 4.5 mph 7.6 mph 67% 0 in 0 W/m2
17:12 57.7 °F 47.7 °F 30 in NNW 4.5 mph 7.6 mph 69% 0 in 0 W/m2
17:17 56.8 °F 47.5 °F 30 in NNW 4.5 mph 8.3 mph 71% 0 in 0 W/m2
17:35 55.2 °F 47.5 °F 30 in NNW 5.4 mph 7.6 mph 75% 0 in 0 W/m2
17:39 55.4 °F 47.7 °F 30 in NNW 3.8 mph 7.6 mph 75% 0 in 0 W/m2
17:44 55.4 °F 47.3 °F 30 in NNW 5.4 mph 7.6 mph 74% 0 in 0 W/m2
17:49 55.6 °F 47.1 °F 30 in NNW 3.8 mph 7.6 mph 73% 0 in 0 W/m2
17:54 55.4 °F 46.9 °F 30 in NNW 3.8 mph 9.8 mph 73% 0 in 0 W/m2
17:59 55.2 °F 46.8 °F 30 in North 4.5 mph 9.8 mph 73% 0 in 0 W/m2
18:04 55 °F 46.6 °F 30 in North 3.1 mph 8.3 mph 73% 0 in 0 W/m2
18:09 54.7 °F 46.6 °F 30 in North 3.8 mph 6 mph 74% 0 in 0 W/m2
18:14 54.3 °F 46.2 °F 30 in North 2.2 mph 6 mph 74% 0 in 0 W/m2
18:20 54 °F 46.2 °F 30.1 in North 2.2 mph 5.4 mph 75% 0 in 0 W/m2
18:25 53.6 °F 46.2 °F 30 in NNW 5.4 mph 7.6 mph 76% 0 in 0 W/m2
18:30 53.8 °F 46.4 °F 30.1 in NNW 4.5 mph 7.6 mph 76% 0 in 0 W/m2
18:35 53.8 °F 46 °F 30 in NNW 4.5 mph 7.6 mph 75% 0 in 0 W/m2
18:40 53.8 °F 46 °F 30.1 in North 4.5 mph 8.3 mph 75% 0 in 0 W/m2
18:45 53.6 °F 45.9 °F 30 in NNW 6 mph 8.3 mph 75% 0 in 0 W/m2
18:48 53.8 °F 46 °F 30.1 in NNW 4.5 mph 8.3 mph 75% 0 in 0 W/m2
18:53 53.8 °F 45.7 °F 30.1 in NNW 3.8 mph 7.6 mph 74% 0 in 0 W/m2
18:58 53.6 °F 45.5 °F 30.1 in NNW 2.2 mph 6.9 mph 74% 0 in 0 W/m2
19:03 52.9 °F 45.5 °F 30.1 in WNW 2.2 mph 6 mph 76% 0 in 0 W/m2
19:08 52 °F 45 °F 30.1 in NW 2.2 mph 3.8 mph 77% 0 in 0 W/m2
19:13 51.6 °F 45.3 °F 30.1 in NW 2.2 mph 4.5 mph 79% 0 in 0 W/m2
19:18 50.9 °F 45.3 °F 30.1 in NW 3.1 mph 5.4 mph 81% 0 in 0 W/m2
19:23 50.4 °F 45.3 °F 30.1 in NW 2.2 mph 5.4 mph 83% 0 in 0 W/m2
19:28 50 °F 45 °F 30.1 in NW 3.1 mph 5.4 mph 83% 0 in 0 W/m2
19:33 49.8 °F 45.5 °F 30.1 in NW 0.7 mph 5.4 mph 85% 0 in 0 W/m2
19:38 49.5 °F 45.1 °F 30.1 in NNW 1.6 mph 5.4 mph 85% 0 in 0 W/m2
19:43 48.9 °F 45 °F 30.1 in NNW 1.6 mph 3.1 mph 86% 0 in 0 W/m2
19:48 48.6 °F 44.6 °F 30.1 in NNW 0.7 mph 3.1 mph 86% 0 in 0 W/m2
19:53 48 °F 44.6 °F 30.1 in NW 0.7 mph 2.2 mph 88% 0 in 0 W/m2
19:58 47.7 °F 44.2 °F 30.1 in NW 1.6 mph 2.2 mph 88% 0 in 0 W/m2
20:03 47.7 °F 44.6 °F 30.1 in SW 1.6 mph 2.2 mph 89% 0 in 0 W/m2
20:08 47.5 °F 44.8 °F 30.1 in SSW 2.2 mph 3.1 mph 90% 0 in 0 W/m2
20:13 47.8 °F 45.1 °F 30.1 in SSW 2.2 mph 3.1 mph 90% 0 in 0 W/m2
20:18 47.5 °F 44.8 °F 30 in WSW 1.6 mph 3.1 mph 90% 0 in 0 W/m2
20:23 47.3 °F 44.2 °F 30.1 in WNW 0.7 mph 3.1 mph 89% 0 in 0 W/m2
20:28 46.9 °F 43.9 °F 30.1 in NW 0.7 mph 3.1 mph 89% 0 in 0 W/m2
20:33 46.8 °F 43.7 °F 30 in North 0.7 mph 2.2 mph 89% 0 in 0 W/m2
20:38 46.2 °F 43.5 °F 30 in NE 0.7 mph 2.2 mph 90% 0 in 0 W/m2
20:43 46 °F 43.5 °F 30 in Calm   1.6 mph 91% 0 in 0 W/m2
20:48 45.9 °F 43.3 °F 30.1 in NW 2.2 mph 3.1 mph 91% 0 in 0 W/m2
20:53 45.9 °F 43.7 °F 30.1 in WSW 2.2 mph 3.8 mph 92% 0 in 0 W/m2
20:58 45.9 °F 43.7 °F 30 in NNW 0.7 mph 3.8 mph 92% 0 in 0 W/m2
21:03 45.3 °F 43.2 °F 30.1 in NNW 1.6 mph 4.5 mph 92% 0 in 0 W/m2
21:08 45 °F 42.8 °F 30.1 in NW 2.2 mph 4.5 mph 92% 0 in 0 W/m2
21:13 45 °F 43.2 °F 30.1 in North 2.2 mph 5.4 mph 93% 0 in 0 W/m2
21:18 46.2 °F 44.2 °F 30.1 in North 3.1 mph 6 mph 93% 0 in 0 W/m2
21:23 46 °F 43.9 °F 30.1 in NNW 1.6 mph 6 mph 92% 0 in 0 W/m2
21:28 46.6 °F 44.1 °F 30.1 in North 6.9 mph 8.3 mph 91% 0 in 0 W/m2
21:33 47.1 °F 44.6 °F 30.1 in North 3.1 mph 9.8 mph 91% 0 in 0 W/m2
21:38 48 °F 45 °F 30.1 in North 5.4 mph 9.8 mph 89% 0 in 0 W/m2
21:43 49.1 °F 45.3 °F 30.1 in NNW 4.5 mph 9.8 mph 87% 0 in 0 W/m2
21:48 50.5 °F 45.7 °F 30.1 in NNW 3.8 mph 9.2 mph 83% 0 in 0 W/m2
21:53 51.6 °F 45.3 °F 30.1 in NNW 6.9 mph 9.2 mph 79% 0 in 0 W/m2
21:58 52 °F 44.2 °F 30.1 in NNW 3.1 mph 9.2 mph 75% 0 in 0 W/m2
22:03 51.6 °F 44.2 °F 30.1 in NNW 3.1 mph 6.9 mph 76% 0 in 0 W/m2
22:08 51.4 °F 44.1 °F 30.1 in NNW 0.7 mph 6 mph 76% 0 in 0 W/m2
22:13 50.9 °F 44.1 °F 30.1 in NW 0.7 mph 4.5 mph 77% 0 in 0 W/m2
22:18 50.2 °F 43.5 °F 30.1 in West 0.7 mph 3.1 mph 78% 0 in 0 W/m2
22:23 49.8 °F 43.9 °F 30.1 in South 2.2 mph 3.8 mph 80% 0 in 0 W/m2
22:28 49.6 °F 44.1 °F 30.1 in SSW 1.6 mph 3.8 mph 81% 0 in 0 W/m2
22:33 49.8 °F 44.2 °F 30.1 in SSW 0.7 mph 3.8 mph 81% 0 in 0 W/m2
22:38 50.2 °F 44.2 °F 30 in SSW 0.7 mph 3.8 mph 80% 0 in 0 W/m2
22:44 50.2 °F 43.9 °F 30.1 in NW 0.7 mph 3.1 mph 79% 0 in 0 W/m2
22:49 50.2 °F 44.2 °F 30 in NW 4.5 mph 6 mph 80% 0 in 0 W/m2
22:54 52.7 °F 46.4 °F 30 in NNW 3.1 mph 7.6 mph 79% 0 in 0 W/m2
22:59 53.8 °F 46 °F 30.1 in NNW 2.2 mph 7.6 mph 75% 0 in 0 W/m2
23:04 54 °F 45.5 °F 30.1 in North 0.7 mph 6.9 mph 73% 0 in 0 W/m2
23:09 53.6 °F 45.1 °F 30 in NE 1.6 mph 4.5 mph 73% 0 in 0 W/m2
23:14 53.2 °F 45.1 °F 30.1 in ESE 2.2 mph 3.1 mph 74% 0 in 0 W/m2
23:19 52.5 °F 44.4 °F 30 in Calm   3.1 mph 74% 0 in 0 W/m2
23:24 52.9 °F 45.1 °F 30 in NW 0.7 mph 4.5 mph 75% 0 in 0 W/m2
23:29 53.2 °F 45.1 °F 30.1 in NNW 1.6 mph 4.5 mph 74% 0 in 0 W/m2
23:34 53.4 °F 45.3 °F 30 in NW 0.7 mph 3.1 mph 74% 0 in 0 W/m2
23:40 52.7 °F 44.8 °F 30 in NNW 2.2 mph 3.1 mph 74% 0 in 0 W/m2
23:45 52.3 °F 44.8 °F 30.1 in North 2.2 mph 4.5 mph 75% 0 in 0 W/m2
23:51 52 °F 44.8 °F 30 in North 2.2 mph 6 mph 76% 0 in 0 W/m2
23:56 51.4 °F 44.4 °F 30 in North 1.6 mph 6 mph 77% 0 in 0 W/m2
Northern Hawkes Bay. New Zealand Historic Data
Compliments of Weather Underground - 2 mb